sensor_id;sensor_type;location;lat;lon;timestamp;pressure;altitude;pressure_sealevel;temperature;humidity
59103;BME280;43999;51.660;5.616;2023-03-16T00:02:34;101577.03;;;3.87;100.00
59103;BME280;43999;51.660;5.616;2023-03-16T00:05:17;101571.81;;;3.89;100.00
59103;BME280;43999;51.660;5.616;2023-03-16T00:07:48;101565.81;;;3.85;100.00
59103;BME280;43999;51.660;5.616;2023-03-16T00:10:26;101560.59;;;3.87;100.00
59103;BME280;43999;51.660;5.616;2023-03-16T00:12:59;101576.03;;;3.94;100.00
59103;BME280;43999;51.660;5.616;2023-03-16T00:15:33;101570.84;;;3.96;100.00
59103;BME280;43999;51.660;5.616;2023-03-16T00:18:13;101576.03;;;3.94;100.00
59103;BME280;43999;51.660;5.616;2023-03-16T00:20:58;101567.47;;;3.91;100.00
59103;BME280;43999;51.660;5.616;2023-03-16T00:23:35;101576.06;;;3.93;100.00
59103;BME280;43999;51.660;5.616;2023-03-16T00:26:10;101566.56;;;3.93;100.00
59103;BME280;43999;51.660;5.616;2023-03-16T00:28:39;101560.53;;;3.91;100.00
59103;BME280;43999;51.660;5.616;2023-03-16T00:31:16;101554.44;;;3.94;100.00
59103;BME280;43999;51.660;5.616;2023-03-16T00:34:00;101549.28;;;3.92;100.00
59103;BME280;43999;51.660;5.616;2023-03-16T00:36:41;101551.84;;;3.95;100.00
59103;BME280;43999;51.660;5.616;2023-03-16T00:39:12;101549.25;;;3.94;100.00
59103;BME280;43999;51.660;5.616;2023-03-16T00:41:43;101550.88;;;4.01;100.00
59103;BME280;43999;51.660;5.616;2023-03-16T00:44:26;101541.41;;;3.99;100.00
59103;BME280;43999;51.660;5.616;2023-03-16T00:47:08;101547.41;;;4.02;100.00
59103;BME280;43999;51.660;5.616;2023-03-16T00:49:49;101535.28;;;4.03;100.00
59103;BME280;43999;51.660;5.616;2023-03-16T00:52:22;101531.88;;;4.01;100.00
59103;BME280;43999;51.660;5.616;2023-03-16T00:55:05;101526.66;;;4.02;100.00
59103;BME280;43999;51.660;5.616;2023-03-16T00:57:40;101534.38;;;4.07;100.00
59103;BME280;43999;51.660;5.616;2023-03-16T01:00:14;101516.22;;;4.05;100.00
59103;BME280;43999;51.660;5.616;2023-03-16T01:02:47;101529.16;;;4.08;100.00
59103;BME280;43999;51.660;5.616;2023-03-16T01:05:30;101517.97;;;4.05;100.00
59103;BME280;43999;51.660;5.616;2023-03-16T01:08:04;101518.78;;;4.08;100.00
59103;BME280;43999;51.660;5.616;2023-03-16T01:10:37;101513.63;;;4.07;100.00
59103;BME280;43999;51.660;5.616;2023-03-16T01:13:19;101492.91;;;4.05;100.00
59103;BME280;43999;51.660;5.616;2023-03-16T01:16:00;101498.03;;;4.08;100.00
59103;BME280;43999;51.660;5.616;2023-03-16T01:18:40;101490.28;;;4.05;100.00
59103;BME280;43999;51.660;5.616;2023-03-16T01:21:16;101498.00;;;4.10;100.00
59103;BME280;43999;51.660;5.616;2023-03-16T01:23:51;101494.59;;;4.08;100.00
59103;BME280;43999;51.660;5.616;2023-03-16T01:26:43;101490.25;;;4.08;100.00
59103;BME280;43999;51.660;5.616;2023-03-16T01:29:28;101485.13;;;4.05;100.00
59103;BME280;43999;51.660;5.616;2023-03-16T01:32:03;101492.91;;;4.05;100.00
59103;BME280;43999;51.660;5.616;2023-03-16T01:34:53;101479.94;;;4.04;100.00
59103;BME280;43999;51.660;5.616;2023-03-16T01:37:28;101478.22;;;4.03;100.00
59103;BME280;43999;51.660;5.616;2023-03-16T01:40:08;101468.72;;;4.03;100.00
59103;BME280;43999;51.660;5.616;2023-03-16T01:42:59;101468.75;;;4.02;100.00
59103;BME280;43999;51.660;5.616;2023-03-16T01:48:48;101468.69;;;4.06;100.00
59103;BME280;43999;51.660;5.616;2023-03-16T01:51:45;101473.91;;;4.03;100.00
59103;BME280;43999;51.660;5.616;2023-03-16T01:54:54;101468.72;;;4.05;100.00
59103;BME280;43999;51.660;5.616;2023-03-16T01:57:31;101453.28;;;3.97;100.00
59103;BME280;43999;51.660;5.616;2023-03-16T02:00:19;101465.25;;;4.03;100.00
59103;BME280;43999;51.660;5.616;2023-03-16T02:03:15;101454.97;;;3.98;100.00
59103;BME280;43999;51.660;5.616;2023-03-16T02:06:18;101464.44;;;4.01;100.00
59103;BME280;43999;51.660;5.616;2023-03-16T02:09:01;101444.63;;;3.97;100.00
59103;BME280;43999;51.660;5.616;2023-03-16T02:11:34;101425.66;;;3.94;100.00
59103;BME280;43999;51.660;5.616;2023-03-16T02:14:11;101437.69;;;3.99;100.00
59103;BME280;43999;51.660;5.616;2023-03-16T02:17:13;101438.56;;;3.98;100.00
59103;BME280;43999;51.660;5.616;2023-03-16T02:22:52;101428.94;;;4.04;100.00
59103;BME280;43999;51.660;5.616;2023-03-16T02:31:39;101410.88;;;3.98;100.00
59103;BME280;43999;51.660;5.616;2023-03-16T02:34:13;101406.66;;;3.94;100.00
59103;BME280;43999;51.660;5.616;2023-03-16T02:36:53;101429.88;;;4.00;100.00
59103;BME280;43999;51.660;5.616;2023-03-16T02:39:31;101427.28;;;4.00;100.00
59103;BME280;43999;51.660;5.616;2023-03-16T02:42:08;101423.78;;;4.01;100.00
59103;BME280;43999;51.660;5.616;2023-03-16T02:44:55;101425.56;;;3.99;100.00
59103;BME280;43999;51.660;5.616;2023-03-16T02:47:42;101426.56;;;3.92;100.00
59103;BME280;43999;51.660;5.616;2023-03-16T02:50:15;101430.13;;;3.85;100.00
59103;BME280;43999;51.660;5.616;2023-03-16T02:52:46;101432.94;;;3.72;100.00
59103;BME280;43999;51.660;5.616;2023-03-16T02:55:18;101438.97;;;3.73;100.00
59103;BME280;43999;51.660;5.616;2023-03-16T02:57:55;101431.09;;;3.77;100.00
59103;BME280;43999;51.660;5.616;2023-03-16T03:00:26;101427.78;;;3.71;100.00
59103;BME280;43999;51.660;5.616;2023-03-16T03:03:06;101436.38;;;3.73;100.00
59103;BME280;43999;51.660;5.616;2023-03-16T03:05:52;101420.91;;;3.67;100.00
59103;BME280;43999;51.660;5.616;2023-03-16T03:08:21;101418.31;;;3.67;100.00
59103;BME280;43999;51.660;5.616;2023-03-16T03:10:50;101432.09;;;3.70;100.00
59103;BME280;43999;51.660;5.616;2023-03-16T03:13:20;101414.06;;;3.64;100.00
59103;BME280;43999;51.660;5.616;2023-03-16T03:15:53;101423.47;;;3.68;100.00
59103;BME280;43999;51.660;5.616;2023-03-16T03:18:34;101421.75;;;3.70;100.00
59103;BME280;43999;51.660;5.616;2023-03-16T03:21:16;101413.03;;;3.73;100.00
59103;BME280;43999;51.660;5.616;2023-03-16T03:23:45;101401.81;;;3.72;100.00
59103;BME280;43999;51.660;5.616;2023-03-16T03:26:36;101413.00;;;3.76;100.00
59103;BME280;43999;51.660;5.616;2023-03-16T03:29:21;101395.78;;;3.72;100.00
59103;BME280;43999;51.660;5.616;2023-03-16T03:32:04;101414.69;;;3.79;100.00
59103;BME280;43999;51.660;5.616;2023-03-16T03:35:03;101385.44;;;3.72;100.00
59103;BME280;43999;51.660;5.616;2023-03-16T03:37:47;101387.13;;;3.73;100.00
59103;BME280;43999;51.660;5.616;2023-03-16T03:40:31;101394.78;;;3.79;100.00
59103;BME280;43999;51.660;5.616;2023-03-16T03:43:06;101384.44;;;3.77;100.00
59103;BME280;43999;51.660;5.616;2023-03-16T03:45:58;101396.50;;;3.82;100.00
59103;BME280;43999;51.660;5.616;2023-03-16T03:48:35;101382.69;;;3.81;100.00
59103;BME280;43999;51.660;5.616;2023-03-16T03:51:18;101374.09;;;3.76;100.00
59103;BME280;43999;51.660;5.616;2023-03-16T03:54:07;101392.16;;;3.82;100.00
59103;BME280;43999;51.660;5.616;2023-03-16T03:56:59;101369.84;;;3.73;100.00
59103;BME280;43999;51.660;5.616;2023-03-16T03:59:36;101378.38;;;3.79;100.00
59103;BME280;43999;51.660;5.616;2023-03-16T04:02:21;101381.81;;;3.81;100.00
59103;BME280;43999;51.660;5.616;2023-03-16T04:04:54;101381.84;;;3.79;100.00
59103;BME280;43999;51.660;5.616;2023-03-16T04:07:36;101368.91;;;3.77;100.00
59103;BME280;43999;51.660;5.616;2023-03-16T04:10:10;101362.03;;;3.76;100.00
59103;BME280;43999;51.660;5.616;2023-03-16T04:12:43;101368.84;;;3.81;100.00
59103;BME280;43999;51.660;5.616;2023-03-16T04:15:16;101375.72;;;3.83;100.00
59103;BME280;43999;51.660;5.616;2023-03-16T04:18:13;101378.25;;;3.86;100.00
59103;BME280;43999;51.660;5.616;2023-03-16T04:20:54;101380.09;;;3.81;100.00
59103;BME280;43999;51.660;5.616;2023-03-16T04:23:24;101373.13;;;3.83;100.00
59103;BME280;43999;51.660;5.616;2023-03-16T04:25:53;101381.66;;;3.90;100.00
59103;BME280;43999;51.660;5.616;2023-03-16T04:28:32;101373.09;;;3.85;100.00
59103;BME280;43999;51.660;5.616;2023-03-16T04:31:21;101371.28;;;3.90;100.00
59103;BME280;43999;51.660;5.616;2023-03-16T04:33:53;101360.16;;;3.83;100.00
59103;BME280;43999;51.660;5.616;2023-03-16T04:36:38;101366.03;;;3.93;100.00
59103;BME280;43999;51.660;5.616;2023-03-16T04:39:12;101351.53;;;3.84;100.00
59103;BME280;43999;51.660;5.616;2023-03-16T04:41:50;101356.59;;;3.90;100.00
59103;BME280;43999;51.660;5.616;2023-03-16T04:44:21;101360.09;;;3.88;100.00
59103;BME280;43999;51.660;5.616;2023-03-16T04:46:59;101360.03;;;3.91;100.00
59103;BME280;43999;51.660;5.616;2023-03-16T04:49:42;101369.50;;;3.93;100.00
59103;BME280;43999;51.660;5.616;2023-03-16T04:52:33;101372.13;;;3.92;100.00
59103;BME280;43999;51.660;5.616;2023-03-16T04:55:17;101369.41;;;3.97;100.00
59103;BME280;43999;51.660;5.616;2023-03-16T04:57:49;101360.03;;;3.91;100.00
59103;BME280;43999;51.660;5.616;2023-03-16T05:00:31;101354.72;;;3.99;100.00
59103;BME280;43999;51.660;5.616;2023-03-16T05:03:21;101355.53;;;4.01;100.00
59103;BME280;43999;51.660;5.616;2023-03-16T05:05:58;101361.50;;;4.04;100.00
59103;BME280;43999;51.660;5.616;2023-03-16T05:08:37;101352.06;;;4.02;100.00
59103;BME280;43999;51.660;5.616;2023-03-16T05:11:17;101351.97;;;4.06;100.00
59103;BME280;43999;51.660;5.616;2023-03-16T05:13:55;101349.41;;;4.05;100.00
59103;BME280;43999;51.660;5.616;2023-03-16T05:16:49;101345.13;;;4.02;100.00
59103;BME280;43999;51.660;5.616;2023-03-16T05:19:29;101333.19;;;3.95;100.00
59103;BME280;43999;51.660;5.616;2023-03-16T05:21:58;101338.28;;;3.98;100.00
59103;BME280;43999;51.660;5.616;2023-03-16T05:24:47;101341.72;;;4.00;100.00
59103;BME280;43999;51.660;5.616;2023-03-16T05:27:30;101332.31;;;3.94;100.00
59103;BME280;43999;51.660;5.616;2023-03-16T05:30:22;101344.34;;;3.99;100.00
59103;BME280;43999;51.660;5.616;2023-03-16T05:32:59;101341.75;;;3.99;100.00
59103;BME280;43999;51.660;5.616;2023-03-16T05:35:36;101336.56;;;3.99;100.00
59103;BME280;43999;51.660;5.616;2023-03-16T05:38:13;101328.00;;;3.95;100.00
59103;BME280;43999;51.660;5.616;2023-03-16T05:40:53;101339.06;;;4.03;100.00
59103;BME280;43999;51.660;5.616;2023-03-16T05:43:46;101334.84;;;3.98;100.00
59103;BME280;43999;51.660;5.616;2023-03-16T05:46:38;101331.28;;;4.03;100.00
59103;BME280;43999;51.660;5.616;2023-03-16T05:49:13;101329.66;;;3.98;100.00
59103;BME280;43999;51.660;5.616;2023-03-16T05:51:48;101334.78;;;4.01;100.00
59103;BME280;43999;51.660;5.616;2023-03-16T05:54:34;101330.44;;;4.01;100.00
59103;BME280;43999;51.660;5.616;2023-03-16T05:57:12;101325.28;;;4.00;100.00
59103;BME280;43999;51.660;5.616;2023-03-16T06:00:31;101331.28;;;4.03;100.00
59103;BME280;43999;51.660;5.616;2023-03-16T06:03:53;101339.09;;;4.02;100.00
59103;BME280;43999;51.660;5.616;2023-03-16T06:06:49;101319.38;;;3.93;100.00
59103;BME280;43999;51.660;5.616;2023-03-16T06:10:01;101324.38;;;4.02;100.00
59103;BME280;43999;51.660;5.616;2023-03-16T06:13:00;101317.56;;;3.97;100.00
59103;BME280;43999;51.660;5.616;2023-03-16T06:16:09;101326.94;;;4.04;100.00
59103;BME280;43999;51.660;5.616;2023-03-16T06:19:08;101314.09;;;3.98;100.00
59103;BME280;43999;51.660;5.616;2023-03-16T06:22:21;101320.03;;;4.03;100.00
59103;BME280;43999;51.660;5.616;2023-03-16T06:25:03;101310.56;;;4.02;100.00
59103;BME280;43999;51.660;5.616;2023-03-16T06:27:50;101315.69;;;4.05;100.00
59103;BME280;43999;51.660;5.616;2023-03-16T06:30:53;101322.53;;;4.07;100.00
59103;BME280;43999;51.660;5.616;2023-03-16T06:33:39;101320.84;;;4.06;100.00
59103;BME280;43999;51.660;5.616;2023-03-16T06:36:48;101328.66;;;4.05;100.00
59103;BME280;43999;51.660;5.616;2023-03-16T06:39:26;101312.25;;;4.03;100.00
59103;BME280;43999;51.660;5.616;2023-03-16T06:42:37;101310.53;;;4.03;100.00
59103;BME280;43999;51.660;5.616;2023-03-16T06:45:11;101311.41;;;4.02;100.00
59103;BME280;43999;51.660;5.616;2023-03-16T06:48:02;101316.56;;;4.04;100.00
59103;BME280;43999;51.660;5.616;2023-03-16T06:50:58;101325.19;;;4.04;100.00
59103;BME280;43999;51.660;5.616;2023-03-16T06:53:36;101315.78;;;4.00;100.00
59103;BME280;43999;51.660;5.616;2023-03-16T06:56:32;101321.00;;;3.99;100.00
59103;BME280;43999;51.660;5.616;2023-03-16T06:59:34;101333.97;;;3.99;100.00
59103;BME280;43999;51.660;5.616;2023-03-16T07:02:12;101321.84;;;3.99;100.00
59103;BME280;43999;51.660;5.616;2023-03-16T07:04:52;101326.03;;;4.06;100.00
59103;BME280;43999;51.660;5.616;2023-03-16T07:07:25;101310.53;;;4.03;100.00
59103;BME280;43999;51.660;5.616;2023-03-16T07:09:56;101306.91;;;4.12;100.00
59103;BME280;43999;51.660;5.616;2023-03-16T07:12:47;101301.69;;;4.13;100.00
59103;BME280;43999;51.660;5.616;2023-03-16T07:15:37;101304.13;;;4.21;100.00
59103;BME280;43999;51.660;5.616;2023-03-16T07:18:26;101293.91;;;4.13;100.00
59103;BME280;43999;51.660;5.616;2023-03-16T07:21:23;101302.31;;;4.26;100.00
59103;BME280;43999;51.660;5.616;2023-03-16T07:24:54;101290.91;;;4.34;100.00
59103;BME280;43999;51.660;5.616;2023-03-16T07:27:44;101307.00;;;4.51;100.00
59103;BME280;43999;51.660;5.616;2023-03-16T07:30:33;101308.63;;;4.55;100.00
59103;BME280;43999;51.660;5.616;2023-03-16T07:33:14;101296.44;;;4.59;100.00
59103;BME280;43999;51.660;5.616;2023-03-16T07:35:58;101296.38;;;4.62;100.00
59103;BME280;43999;51.660;5.616;2023-03-16T07:39:42;101301.38;;;4.71;100.00
59103;BME280;43999;51.660;5.616;2023-03-16T07:42:42;101309.06;;;4.76;100.00
59103;BME280;43999;51.660;5.616;2023-03-16T07:45:25;101302.13;;;4.76;100.00
59103;BME280;43999;51.660;5.616;2023-03-16T07:48:23;101300.22;;;4.83;100.00
59103;BME280;43999;51.660;5.616;2023-03-16T07:51:00;101299.28;;;4.87;100.00
59103;BME280;43999;51.660;5.616;2023-03-16T07:53:48;101305.25;;;4.91;100.00
59103;BME280;43999;51.660;5.616;2023-03-16T07:56:33;101302.53;;;4.95;100.00
59103;BME280;43999;51.660;5.616;2023-03-16T07:59:58;101297.22;;;5.01;100.00
59103;BME280;43999;51.660;5.616;2023-03-16T08:02:57;101287.59;;;5.07;100.00
59103;BME280;43999;51.660;5.616;2023-03-16T08:05:46;101292.75;;;5.08;100.00
59103;BME280;43999;51.660;5.616;2023-03-16T08:08:39;101290.00;;;5.14;100.00
59103;BME280;43999;51.660;5.616;2023-03-16T08:11:41;101286.38;;;5.20;100.00
59103;BME280;43999;51.660;5.616;2023-03-16T08:14:10;101298.38;;;5.26;100.00
59103;BME280;43999;51.660;5.616;2023-03-16T08:17:04;101293.19;;;5.26;100.00
59103;BME280;43999;51.660;5.616;2023-03-16T08:19:54;101281.22;;;5.18;100.00
59103;BME280;43999;51.660;5.616;2023-03-16T08:23:26;101285.31;;;5.29;100.00
59103;BME280;43999;51.660;5.616;2023-03-16T08:26:26;101290.28;;;5.38;100.00
59103;BME280;43999;51.660;5.616;2023-03-16T08:29:11;101275.34;;;5.46;100.00
59103;BME280;43999;51.660;5.616;2023-03-16T08:32:03;101293.19;;;5.60;100.00
59103;BME280;43999;51.660;5.616;2023-03-16T08:35:01;101282.50;;;5.71;100.00
59103;BME280;43999;51.660;5.616;2023-03-16T08:38:02;101287.47;;;5.80;100.00
59103;BME280;43999;51.660;5.616;2023-03-16T08:40:51;101279.63;;;5.82;100.00
59103;BME280;43999;51.660;5.616;2023-03-16T08:44:11;101269.25;;;5.80;100.00
59103;BME280;43999;51.660;5.616;2023-03-16T08:46:59;101294.13;;;5.90;100.00
59103;BME280;43999;51.660;5.616;2023-03-16T08:50:40;101278.34;;;5.98;100.00
59103;BME280;43999;51.660;5.616;2023-03-16T08:53:26;101290.34;;;6.02;100.00
59103;BME280;43999;51.660;5.616;2023-03-16T08:56:52;101294.47;;;6.11;100.00
59103;BME280;43999;51.660;5.616;2023-03-16T08:59:26;101299.50;;;6.17;100.00
59103;BME280;43999;51.660;5.616;2023-03-16T09:02:12;101282.00;;;6.22;100.00
59103;BME280;43999;51.660;5.616;2023-03-16T09:05:23;101268.75;;;6.30;100.00
59103;BME280;43999;51.660;5.616;2023-03-16T09:08:49;101268.38;;;6.42;100.00
59103;BME280;43999;51.660;5.616;2023-03-16T09:11:26;101257.78;;;6.49;100.00
59103;BME280;43999;51.660;5.616;2023-03-16T09:14:01;101249.84;;;6.53;100.00
59103;BME280;43999;51.660;5.616;2023-03-16T09:16:44;101270.53;;;6.58;100.00
59103;BME280;43999;51.660;5.616;2023-03-16T09:19:23;101263.47;;;6.61;100.00
59103;BME280;43999;51.660;5.616;2023-03-16T09:22:21;101256.50;;;6.63;100.00
59103;BME280;43999;51.660;5.616;2023-03-16T09:25:12;101258.91;;;6.70;100.00
59103;BME280;43999;51.660;5.616;2023-03-16T09:28:02;101263.09;;;6.74;100.00
59103;BME280;43999;51.660;5.616;2023-03-16T09:30:54;101270.47;;;6.88;100.00
59103;BME280;43999;51.660;5.616;2023-03-16T09:33:24;101259.81;;;6.95;100.00
59103;BME280;43999;51.660;5.616;2023-03-16T09:35:55;101256.81;;;7.08;100.00
59103;BME280;43999;51.660;5.616;2023-03-16T09:38:32;101259.78;;;7.24;100.00
59103;BME280;43999;51.660;5.616;2023-03-16T09:41:26;101264.34;;;7.44;100.00
59103;BME280;43999;51.660;5.616;2023-03-16T09:44:12;101259.22;;;7.66;100.00
59103;BME280;43999;51.660;5.616;2023-03-16T09:46:47;101249.03;;;7.83;100.00
59103;BME280;43999;51.660;5.616;2023-03-16T09:49:20;101240.72;;;7.97;100.00
59103;BME280;43999;51.660;5.616;2023-03-16T09:55:31;101256.41;;;8.19;100.00
59103;BME280;43999;51.660;5.616;2023-03-16T09:58:18;101254.34;;;8.29;99.47
59103;BME280;43999;51.660;5.616;2023-03-16T10:01:44;101243.72;;;8.34;96.13
59103;BME280;43999;51.660;5.616;2023-03-16T10:04:42;101249.63;;;8.39;98.30
59103;BME280;43999;51.660;5.616;2023-03-16T10:16:48;101232.66;;;8.73;95.19
59103;BME280;43999;51.660;5.616;2023-03-16T10:19:49;101220.19;;;8.79;93.57
59103;BME280;43999;51.660;5.616;2023-03-16T10:22:25;101225.09;;;8.87;92.79
59103;BME280;43999;51.660;5.616;2023-03-16T10:28:04;101212.53;;;8.97;93.44
59103;BME280;43999;51.660;5.616;2023-03-16T10:31:11;101206.88;;;9.08;90.73
59103;BME280;43999;51.660;5.616;2023-03-16T10:33:45;101210.66;;;9.21;89.62
59103;BME280;43999;51.660;5.616;2023-03-16T10:36:37;101206.78;;;9.30;87.57
59103;BME280;43999;51.660;5.616;2023-03-16T10:39:43;101204.56;;;9.41;90.43
59103;BME280;43999;51.660;5.616;2023-03-16T10:43:04;101207.22;;;9.60;86.59
59103;BME280;43999;51.660;5.616;2023-03-16T10:45:45;101211.38;;;9.85;87.13
59103;BME280;43999;51.660;5.616;2023-03-16T10:48:24;101184.38;;;10.22;87.26
59103;BME280;43999;51.660;5.616;2023-03-16T10:51:17;101199.16;;;10.79;85.09
59103;BME280;43999;51.660;5.616;2023-03-16T10:54:38;101200.25;;;11.45;77.89
59103;BME280;43999;51.660;5.616;2023-03-16T10:57:35;101193.34;;;11.93;78.35
59103;BME280;43999;51.660;5.616;2023-03-16T11:00:13;101185.97;;;12.48;79.17
59103;BME280;43999;51.660;5.616;2023-03-16T11:02:57;101184.97;;;12.97;76.89
59103;BME280;43999;51.660;5.616;2023-03-16T11:05:37;101191.56;;;13.34;72.80
59103;BME280;43999;51.660;5.616;2023-03-16T11:08:14;101183.66;;;13.49;69.90
59103;BME280;43999;51.660;5.616;2023-03-16T11:11:16;101175.91;;;13.31;64.75
59103;BME280;43999;51.660;5.616;2023-03-16T11:13:58;101159.97;;;13.04;63.25
59103;BME280;43999;51.660;5.616;2023-03-16T11:17:15;101168.19;;;12.83;67.98
59103;BME280;43999;51.660;5.616;2023-03-16T11:19:58;101173.91;;;12.76;67.25
59103;BME280;43999;51.660;5.616;2023-03-16T11:22:32;101165.44;;;12.70;67.84
59103;BME280;43999;51.660;5.616;2023-03-16T11:29:55;101144.94;;;12.61;68.85
59103;BME280;43999;51.660;5.616;2023-03-16T11:34:31;101135.53;;;12.57;65.51
59103;BME280;43999;51.660;5.616;2023-03-16T11:40:56;101147.47;;;12.47;65.18
59103;BME280;43999;51.660;5.616;2023-03-16T11:44:42;101139.53;;;12.32;64.35
59103;BME280;43999;51.660;5.616;2023-03-16T11:57:56;101120.94;;;12.51;64.15
59103;BME280;43999;51.660;5.616;2023-03-16T12:01:30;101119.66;;;12.59;65.85
59103;BME280;43999;51.660;5.616;2023-03-16T12:08:29;101103.91;;;12.73;63.71
59103;BME280;43999;51.660;5.616;2023-03-16T12:15:34;101095.09;;;12.74;64.58
59103;BME280;43999;51.660;5.616;2023-03-16T12:19:05;101096.81;;;12.75;63.71
59103;BME280;43999;51.660;5.616;2023-03-16T12:24:45;101076.28;;;13.11;63.06
59103;BME280;43999;51.660;5.616;2023-03-16T12:27:28;101063.78;;;13.43;61.97
59103;BME280;43999;51.660;5.616;2023-03-16T12:46:01;101028.94;;;14.74;56.14
59103;BME280;43999;51.660;5.616;2023-03-16T12:48:48;101032.00;;;14.68;56.73
59103;BME280;43999;51.660;5.616;2023-03-16T12:51:59;101023.38;;;14.66;55.91
59103;BME280;43999;51.660;5.616;2023-03-16T12:54:29;101026.31;;;14.74;55.56
59103;BME280;43999;51.660;5.616;2023-03-16T12:57:08;101010.91;;;14.94;55.09
59103;BME280;43999;51.660;5.616;2023-03-16T12:59:59;100998.00;;;15.15;54.69
59103;BME280;43999;51.660;5.616;2023-03-16T13:02:56;100981.22;;;15.53;53.39
59103;BME280;43999;51.660;5.616;2023-03-16T13:05:53;100983.56;;;15.69;51.62
59103;BME280;43999;51.660;5.616;2023-03-16T13:08:54;100997.50;;;15.84;52.89
59103;BME280;43999;51.660;5.616;2023-03-16T13:11:57;100998.59;;;16.17;51.60
59103;BME280;43999;51.660;5.616;2023-03-16T13:14:54;100982.22;;;16.11;58.37
59103;BME280;43999;51.660;5.616;2023-03-16T13:17:29;100986.09;;;15.09;60.42
59103;BME280;43999;51.660;5.616;2023-03-16T13:20:29;100976.25;;;14.21;65.09
59103;BME280;43999;51.660;5.616;2023-03-16T13:23:54;100963.88;;;13.96;68.56
59103;BME280;43999;51.660;5.616;2023-03-16T13:26:41;100971.19;;;14.18;68.41
59103;BME280;43999;51.660;5.616;2023-03-16T13:29:57;100966.78;;;14.44;65.61
59103;BME280;43999;51.660;5.616;2023-03-16T13:33:34;100968.19;;;14.76;67.24
59103;BME280;43999;51.660;5.616;2023-03-16T13:36:29;100969.06;;;15.13;62.55
59103;BME280;43999;51.660;5.616;2023-03-16T13:45:13;100944.81;;;15.93;57.56
59103;BME280;43999;51.660;5.616;2023-03-16T13:48:04;100950.00;;;16.06;59.09
59103;BME280;43999;51.660;5.616;2023-03-16T13:50:53;100942.47;;;16.13;56.36
59103;BME280;43999;51.660;5.616;2023-03-16T13:54:31;100912.94;;;16.30;54.58
59103;BME280;43999;51.660;5.616;2023-03-16T13:57:03;100926.75;;;16.34;56.30
59103;BME280;43999;51.660;5.616;2023-03-16T14:02:54;100918.72;;;16.58;47.88
59103;BME280;43999;51.660;5.616;2023-03-16T14:05:39;100915.34;;;16.34;49.68
59103;BME280;43999;51.660;5.616;2023-03-16T14:08:29;100911.34;;;16.17;45.88
59103;BME280;43999;51.660;5.616;2023-03-16T14:11:07;100910.81;;;16.00;47.01
59103;BME280;43999;51.660;5.616;2023-03-16T14:14:13;100916.63;;;16.17;47.17
59103;BME280;43999;51.660;5.616;2023-03-16T14:17:21;100914.28;;;16.59;46.04
59103;BME280;43999;51.660;5.616;2023-03-16T14:20:02;100901.41;;;16.88;44.89
59103;BME280;43999;51.660;5.616;2023-03-16T14:25:49;100893.59;;;17.42;45.28
59103;BME280;43999;51.660;5.616;2023-03-16T14:28:31;100878.41;;;17.76;47.69
59103;BME280;43999;51.660;5.616;2023-03-16T14:31:17;100877.06;;;18.03;45.65
59103;BME280;43999;51.660;5.616;2023-03-16T14:34:29;100870.66;;;18.26;47.45
59103;BME280;43999;51.660;5.616;2023-03-16T14:37:15;100863.63;;;18.16;44.80
59103;BME280;43999;51.660;5.616;2023-03-16T14:40:30;100868.47;;;18.10;44.76
59103;BME280;43999;51.660;5.616;2023-03-16T14:43:04;100869.78;;;18.26;43.61
59103;BME280;43999;51.660;5.616;2023-03-16T14:45:38;100872.03;;;18.52;44.89
59103;BME280;43999;51.660;5.616;2023-03-16T14:48:18;100872.72;;;18.54;46.04
59103;BME280;43999;51.660;5.616;2023-03-16T14:50:53;100866.03;;;18.59;42.85
59103;BME280;43999;51.660;5.616;2023-03-16T14:53:33;100853.75;;;18.68;43.64
59103;BME280;43999;51.660;5.616;2023-03-16T14:56:01;100860.63;;;18.71;43.66
59103;BME280;43999;51.660;5.616;2023-03-16T14:58:29;100869.81;;;18.67;41.15
59103;BME280;43999;51.660;5.616;2023-03-16T15:01:03;100866.25;;;18.46;42.68
59103;BME280;43999;51.660;5.616;2023-03-16T15:03:52;100864.22;;;18.29;44.36
59103;BME280;43999;51.660;5.616;2023-03-16T15:06:20;100858.88;;;18.19;44.35
59103;BME280;43999;51.660;5.616;2023-03-16T15:08:49;100849.19;;;18.30;43.79
59103;BME280;43999;51.660;5.616;2023-03-16T15:11:18;100849.25;;;18.18;43.55
59103;BME280;43999;51.660;5.616;2023-03-16T15:13:49;100845.47;;;17.90;43.53
59103;BME280;43999;51.660;5.616;2023-03-16T15:16:36;100842.72;;;17.59;44.67
59103;BME280;43999;51.660;5.616;2023-03-16T15:19:11;100845.69;;;17.66;45.26
59103;BME280;43999;51.660;5.616;2023-03-16T15:21:39;100840.88;;;17.92;45.79
59103;BME280;43999;51.660;5.616;2023-03-16T15:24:18;100832.91;;;17.92;44.62
59103;BME280;43999;51.660;5.616;2023-03-16T15:26:46;100836.56;;;17.91;43.69
59103;BME280;43999;51.660;5.616;2023-03-16T15:29:17;100821.91;;;17.97;44.20
59103;BME280;43999;51.660;5.616;2023-03-16T15:31:53;100814.16;;;18.05;43.59
59103;BME280;43999;51.660;5.616;2023-03-16T15:34:20;100810.22;;;18.30;43.17
59103;BME280;43999;51.660;5.616;2023-03-16T15:36:51;100818.50;;;18.46;42.47
59103;BME280;43999;51.660;5.616;2023-03-16T15:39:25;100807.81;;;18.58;41.85
59103;BME280;43999;51.660;5.616;2023-03-16T15:41:58;100799.03;;;18.67;41.13
59103;BME280;43999;51.660;5.616;2023-03-16T15:44:46;100809.66;;;18.77;41.99
59103;BME280;43999;51.660;5.616;2023-03-16T15:47:16;100797.81;;;18.91;40.74
59103;BME280;43999;51.660;5.616;2023-03-16T15:49:46;100802.16;;;19.02;40.61
59103;BME280;43999;51.660;5.616;2023-03-16T15:52:42;100806.59;;;18.81;39.74
59103;BME280;43999;51.660;5.616;2023-03-16T15:55:20;100800.50;;;18.40;41.48
59103;BME280;43999;51.660;5.616;2023-03-16T15:58:14;100816.19;;;18.22;41.50
59103;BME280;43999;51.660;5.616;2023-03-16T16:00:55;100809.94;;;18.33;42.13